Carl, Iowa
Current Conditions -  °F | °C
As of 2:55 AM on Sunday 21 Dec 2014 (Local Time) from KCSQ Reporting Station
Haze Haze  
Wind Chill: -3°   Ceiling: 600
Heat Index:   Visibility: 3mi
Dew Point:   Wind: 15mph
Humidity: 100%   Direction: 180°S
Pressure: 30.04"   Gusts: NA
Location:  41.0285°N, 94.7568°W
Report Text: KCSQ 210855Z AUTO 18013KT 3SM BR OVC006 02/02 A3004 RMK AO2
Loading
Personal Weather Stations






























Interactive Weather Map New forecast layout! Learn more

10-Day Weather Forecast

Advertisements
Track Severe Weather on mobile